Forside
METAR-TAF:

METAR-TAF

Lufthavne :

Såtenäs, Sverige

Breddekreds: 58-26N, længdekreds: 012-42E, højde: 54 m

Aktuelle vejr

Denne rapport blev lavet for 31 minutter siden, kl. 22:20 UTC
Vind 2 kt fra nord
Temperatur -1°C
Fugtighed 74%
Tryk 1011 hPa
Sigt 10 km eller mere

METAR: ESIB 192220Z AUTO 36002KT 9999 NCD M01/M05 Q1011

Tid: 00:51 (22:51 UTC)

Vejrudsigter

Denne rapport blev lavet for 11 timer og 21 minutter siden, kl. 11:30 UTC
Foreløbig gælder fra 19 på 12 UTC til 19 på 15 UTC
Vind 12 kt fra østnordøst
Sigt 10 km eller mere
Brudte skyer i en højde af 2000 ft
Midlertidig
fra 19 på 12 UTC til 19 på 15 UTC
Brudte skyer i en højde af 2000 ft, Optårnet Cumulus.

TAF: ESIB 191130Z 1912/1915 07012KT 9999 BKN020 TEMPO 1912/1915 BKN020TCU RMK MIL

Vejrobservationer og prognoser fra mere end 4000 lufthavne (METAR og TAF).

De gule og røde prikker repræsenterer de meteorologiske stationer.

Flyt musen over at se navnet på stationen.

Så klik over at se vejr observationer og prognoser.

At skifte det kort: Klik på de grønne knapper med et sort kors for at zoome ind; på den grønne knap med en bindestreg for at zoome ud; eller på de grønne pile for tilstødende kort.


METAR-TAF: